Main page
METAR-TAF:

METAR-TAF

Airports :

Dax, France

Aérodrome de Dax - Seyresse

latitude: 43-41N, longitude: 001-04W, elevation: 32 m

Current weather observation

The report was made 22 minutes ago, at 07:00 UTC
Wind 3 kt from the East
Temperature 2°C
Humidity 93%
Pressure 1012 hPa
Visibility 10 km or more
no clouds below 1500 m and no cumulonimbus

METAR: LFBY 220700Z 09003KT CAVOK 02/01 Q1012

Time: 08:22 (07:22 UTC)

Forecast

The report was made 23 hours and 22 minutes ago, at 08:00 UTC
Forecast valid from 21 at 09 UTC to 21 at 18 UTC
Wind 5 kt from the East
Visibility 10 km or more
no clouds below 1500 m and no cumulonimbus
Temporary
from 21 at 09 UTC to 21 at 11 UTC
Visibility: 6000 m
Shallow fog

TAF: LFBY 210800Z 2109/2118 08005KT CAVOK TEMPO 2109/2111 6000 MIFG

Weather observations and forecasts of more than 4000 airports (METAR and TAF reports).

The available stations are represented by yellow and red dots on the map.

Hover mouse over dot to see the name of the station.

Then click to see weather observations and forecasts.

To change the map : click on the green buttons with a black cross to zoom in, on the green button with a dash to zoom out, or on the green arrows for adjacent maps.


METAR-TAF: